Airfield :
LOGIN :

Register | Disclaimer

   EN    FR    IT 

 










Legend :    VFR   Marginal VFR   IFR   Intensive IFR   Very Intensive IFR
Visi :
Ceiling :
>= 8 km
>= 3000ft
5 to 8 km
1000 to 3000 ft
1500m to 5 km
500 to 1000 ft
800 to 1500m
200 to 500 ft
< 800m
< 200 ft
Symbols :   Thunderstorms  Fog  Heavy snow  Heavy precipitations  Wind > 20 kt
SIGMETs :     Misc.  Thunderstorms  Icing  Turbulence  Mountain Waves  Volcanic Ashes






- Airport Elevation : 1766 ft


ETHL - Laupheim AB

CURRENT METAR :
  • 161227Z 35002KT 0400 R27/0450N FG BKN250 04/03 Q1009 RED RED BECMG BLU+

EXPIRED METARs :
  • 161200Z 02002KT 0500 R27/0450D FG BKN250 03/03 Q1009 RED RED BECMG BLU+
  • 161138Z 03002KT 0400 R27/0550U FG BKN250 03/02 Q1009 RED RED BECMG BLU+
  • 161132Z 08001KT 0500 R27/0550N FG BKN250 03/02 Q1010 RED RED BECMG BLU+
  • 161120Z 05002KT 0200 R27/0600U FG SCT001 BKN250 02/02 Q1010 RED RED BECMG BLU+
  • 161020Z 04001KT 0100 R27/0350N FG SCT001 BKN250 01/01 Q1010 RED RED BECMG BLU+

TAF TAF ETHL
Valid from the 16 at 12:00 until the 16 at 21:00 UTC


161124Z 1612/1621 VRB03KT 1500 BR SCT001 BKN250
BECMG 1612/1613 23005KT 8000 NSW BKN250
BECMG 1618/1620 VRB03KT 0200 FG VV001



MET'MAP, your aeronautical weather chart ! - Copyright ORBIFLY December 2007 - Disclaimer

ORBIFLY MET'MAP TEAM :

Programming & Development : Alexandra Zaïnal
Concept & original design : Baudouin d'Aumeries
Assistance for programming : Marc-Olivier Méhu
Technical & hardware support : Manuel Goepfert

Contact : metmap@orbifly.com




SOURCES & CREDITS :

   NOAA